Aurora, NE

11:57 AM CDT on June 22, 2017 (GMT -0500)
Aurora Municipal

Weather History for KAUH - June, 2013

Change the Weather History Date:

Tuesday, June 25, 2013

  Actual Average Record
Temperature  
Mean Temperature 78 °F -  
Max Temperature 89 °F 87 °F 105 °F (1971)
Min Temperature 68 °F 62 °F 42 °F (2004)
Cooling Degree Days 14    
Growing Degree Days 28 (Base 50)    
Moisture  
Dew Point 67 °F    
Average Humidity 71    
Maximum Humidity 100    
Minimum Humidity 46    
Precipitation  
Precipitation 0.00 in - - ()
Sea Level Pressure  
Sea Level Pressure 29.72 in    
Wind  
Wind Speed 9 mph (South)    
Max Wind Speed 24 mph    
Max Gust Speed 34 mph    
Visibility 10 miles    
Events Thunderstorm    
Averages and records for this station are not official NWS values.
T = Trace of Precipitation, MM = Missing Value Source: NWS Daily Summary

Daily Weather History Graph

Daily Weather History Graph

Search for Another Location

Airport or City:

Trip Planner

Search our weather history database for the weather conditions in past years. The results will help you decide how hot, cold, wet, or windy it might be!

Date:

Astronomy

Jun. 25, 2013 Rise Set
Actual Time 6:01 AM CDT 9:07 PM CDT
Civil Twilight 5:27 AM CDT 9:41 PM CDT
Nautical Twilight 4:45 AM CDT 10:24 PM CDT
Astronomical Twilight 3:54 AM CDT 11:14 PM CDT
Moon 10:52 PM CDT (6/25) 8:44 AM CDT (6/25)
Length of Visible Light 16h 13m
Length of Day
15h 06m
Waning Gibbous, 92% of the Moon is Illuminated
Jun 25
Waning Gibbous
Jun 29
Last Quarter
Jul 8
New
Jul 15
First Quarter
Jul 22
Full

Hourly Weather History & Observations

Time (CDT) Temp. Heat Index Dew Point Humidity Pressure Visibility Wind Dir Wind Speed Gust Speed Precip Events Conditions
12:15 AM 72.9 °F - 68.5 °F 86% 29.71 in 10.0 mi SE 9.2 mph - N/A   Clear
12:35 AM 71.6 °F - 68.4 °F 89% 29.72 in 10.0 mi ESE 8.1 mph - N/A   Clear
12:55 AM 70.7 °F - 68.2 °F 92% 29.73 in 10.0 mi East 5.8 mph - N/A   Clear
1:15 AM 70.0 °F - 68.2 °F 94% 29.74 in 10.0 mi ESE 5.8 mph - N/A   Clear
1:35 AM 68.9 °F - 67.6 °F 96% 29.76 in 10.0 mi NNE 6.9 mph - N/A   Clear
1:55 AM 68.9 °F - 68.7 °F 99% 29.77 in 7.0 mi ENE 4.6 mph - N/A   Clear
2:15 AM 69.4 °F - 68.4 °F 96% 29.77 in 10.0 mi East 4.6 mph - N/A   Clear
2:35 AM 68.9 °F - 68.2 °F 98% 29.77 in 10.0 mi ENE 5.8 mph - N/A   Clear
2:55 AM 68.9 °F - 67.3 °F 95% 29.75 in 10.0 mi East 6.9 mph - N/A   Clear
3:15 AM 68.4 °F - 66.9 °F 95% 29.75 in 10.0 mi ENE 6.9 mph - N/A   Clear
3:35 AM 68.5 °F - 66.7 °F 94% 29.75 in 10.0 mi ENE 8.1 mph - N/A   Clear
3:55 AM 68.4 °F - 66.2 °F 93% 29.75 in 10.0 mi East 5.8 mph - N/A   Clear
4:15 AM 68.5 °F - 66.6 °F 93% 29.73 in 10.0 mi East 5.8 mph - N/A   Clear
4:35 AM 68.7 °F - 67.1 °F 95% 29.74 in 10.0 mi SE 5.8 mph - N/A Thunderstorm Thunderstorm
4:55 AM 70.2 °F - 66.2 °F 87% 29.73 in 10.0 mi South 3.5 mph - N/A Thunderstorm Scattered Clouds
5:15 AM 70.7 °F - 64.4 °F 80% 29.73 in 10.0 mi SSW 3.5 mph - N/A   Clear
5:35 AM 72.5 °F - 63.1 °F 72% 29.75 in 10.0 mi SSE 5.8 mph - N/A Thunderstorm Clear
5:55 AM 70.5 °F - 63.5 °F 78% 29.76 in 10.0 mi SSE 10.4 mph - N/A   Scattered Clouds
6:15 AM 72.5 °F - 59.7 °F 64% 29.74 in 10.0 mi South 11.5 mph - N/A   Scattered Clouds
6:35 AM 71.6 °F - 58.6 °F 64% 29.74 in 10.0 mi South 13.8 mph - N/A   Clear
6:55 AM 70.9 °F - 59.0 °F 66% 29.74 in 10.0 mi SSE 11.5 mph - N/A   Clear
7:15 AM 72.7 °F - 57.6 °F 59% 29.74 in 10.0 mi SSE 13.8 mph 18.4 mph N/A   Scattered Clouds
7:35 AM 71.2 °F - 60.3 °F 68% 29.75 in 10.0 mi SE 6.9 mph - N/A   Scattered Clouds
7:55 AM 73.4 °F - 59.4 °F 61% 29.76 in 10.0 mi SE 9.2 mph - N/A   Clear
8:15 AM 73.9 °F - 61.0 °F 64% 29.76 in 10.0 mi SE 9.2 mph - N/A   Clear
8:35 AM 74.5 °F - 61.7 °F 64% 29.76 in 10.0 mi SSE 15.0 mph 21.9 mph N/A   Clear
8:55 AM 75.9 °F - 62.8 °F 64% 29.76 in 10.0 mi SSE 15.0 mph 26.5 mph N/A   Clear
9:15 AM 77.7 °F - 63.7 °F 62% 29.74 in 10.0 mi SSE 18.4 mph - N/A   Clear
9:35 AM 79.7 °F - 63.9 °F 58% 29.74 in 10.0 mi SSE 21.9 mph 32.2 mph N/A   Clear
9:55 AM 79.3 °F - 64.0 °F 59% 29.73 in 10.0 mi SSE 24.2 mph 34.5 mph N/A   Clear
10:15 AM 79.5 °F - 64.6 °F 60% 29.72 in 10.0 mi SSE 20.7 mph 34.5 mph N/A   Clear
10:35 AM 78.3 °F - 64.4 °F 62% 29.71 in 10.0 mi SSE 24.2 mph 31.1 mph N/A   Clear
10:55 AM 77.0 °F - 64.9 °F 66% 29.71 in 10.0 mi South 13.8 mph 24.2 mph N/A   Clear
11:15 AM 77.0 °F - 66.0 °F 69% 29.71 in 10.0 mi SSE 11.5 mph - N/A   Clear
11:35 AM 78.8 °F - 66.9 °F 67% 29.72 in 10.0 mi South 12.7 mph 20.7 mph N/A   Clear
11:55 AM 79.5 °F - 67.1 °F 66% 29.72 in 10.0 mi SSE 10.4 mph 23.0 mph N/A   Clear
12:15 PM 80.8 °F 83.3 °F 67.6 °F 64% 29.72 in 10.0 mi SSE 16.1 mph 20.7 mph N/A   Scattered Clouds
12:35 PM 81.9 °F 84.6 °F 67.8 °F 62% 29.72 in 10.0 mi South 11.5 mph - N/A   Scattered Clouds
12:55 PM 82.4 °F 85.2 °F 67.8 °F 61% 29.72 in 10.0 mi South 13.8 mph 19.6 mph N/A   Mostly Cloudy
1:15 PM 82.8 °F 85.8 °F 68.2 °F 61% 29.72 in 10.0 mi South 16.1 mph - N/A   Mostly Cloudy
1:35 PM 84.0 °F 87.0 °F 67.8 °F 58% 29.70 in 10.0 mi South 13.8 mph 18.4 mph N/A   Mostly Cloudy
1:55 PM 85.1 °F 87.9 °F 67.5 °F 55% 29.71 in 10.0 mi South 11.5 mph 16.1 mph N/A   Mostly Cloudy
2:15 PM 85.3 °F 88.5 °F 68.0 °F 56% 29.70 in 10.0 mi South 11.5 mph 16.1 mph N/A   Mostly Cloudy
2:35 PM 85.8 °F 88.5 °F 67.1 °F 53% 29.70 in 10.0 mi South 10.4 mph - N/A   Mostly Cloudy
2:55 PM 86.5 °F 89.6 °F 67.5 °F 53% 29.70 in 10.0 mi SSW 9.2 mph - N/A   Scattered Clouds
3:15 PM 87.6 °F 90.8 °F 67.5 °F 51% 29.69 in 10.0 mi South 12.7 mph - N/A   Scattered Clouds
3:35 PM 87.8 °F 90.7 °F 66.9 °F 50% 29.69 in 10.0 mi SSW 5.8 mph - N/A   Scattered Clouds
3:55 PM 88.3 °F 91.2 °F 66.7 °F 49% 29.68 in 10.0 mi SW 9.2 mph - N/A   Mostly Cloudy
4:15 PM 88.9 °F 91.8 °F 66.7 °F 48% 29.68 in 10.0 mi SSW 4.6 mph - N/A   Scattered Clouds
4:18 PM 89.6 °F 92.2 °F 66.2 °F 46% 29.68 in 10.0 mi SSW 5.8 mph - N/A   Scattered Clouds
4:35 PM 87.6 °F 90.8 °F 67.5 °F 51% 29.68 in 10.0 mi West 3.5 mph - N/A   Scattered Clouds
4:37 PM 87.8 °F 91.4 °F 68.0 °F 52% 29.68 in 10.0 mi West 4.6 mph - N/A   Clear
4:55 PM 89.2 °F 92.0 °F 66.7 °F 47% 29.69 in 10.0 mi West 4.6 mph - N/A   Scattered Clouds
5:15 PM 88.3 °F 92.8 °F 69.4 °F 53% 29.68 in 10.0 mi NW 10.4 mph 16.1 mph N/A   Scattered Clouds
5:35 PM 87.8 °F 91.8 °F 68.5 °F 53% 29.68 in 10.0 mi NW 6.9 mph - N/A   Clear
5:55 PM 88.0 °F 91.8 °F 68.5 °F 52% 29.68 in 10.0 mi NNW 5.8 mph - N/A   Clear
6:15 PM 87.6 °F 91.9 °F 69.1 °F 54% 29.68 in 10.0 mi NW 4.6 mph - N/A   Clear
6:35 PM 86.9 °F 91.3 °F 69.3 °F 56% 29.69 in 10.0 mi NW 9.2 mph - N/A   Clear
6:55 PM 86.4 °F 90.7 °F 69.6 °F 57% 29.70 in 10.0 mi NW 9.2 mph - N/A   Clear
7:15 PM 85.8 °F 90.4 °F 70.2 °F 59% 29.70 in 10.0 mi NW 9.2 mph - N/A   Clear
7:35 PM 84.6 °F 89.1 °F 70.2 °F 62% 29.71 in 10.0 mi NW 6.9 mph - N/A   Clear
7:55 PM 83.3 °F 87.6 °F 70.5 °F 65% 29.72 in 10.0 mi NW 4.6 mph - N/A   Clear
8:15 PM 82.8 °F 87.7 °F 71.6 °F 69% 29.72 in 10.0 mi NNW 3.5 mph - N/A   Clear
8:35 PM 81.0 °F 85.2 °F 72.0 °F 74% 29.72 in 10.0 mi NNW 3.5 mph - N/A   Clear
8:55 PM 79.7 °F - 72.7 °F 79% 29.72 in 10.0 mi NW 3.5 mph - N/A   Clear
9:15 PM 79.3 °F - 72.7 °F 80% 29.72 in 10.0 mi Calm Calm - N/A   Clear
9:35 PM 79.0 °F - 73.0 °F 82% 29.72 in 10.0 mi Calm Calm - N/A   Clear
9:55 PM 77.9 °F - 72.9 °F 84% 29.73 in 10.0 mi North 3.5 mph - N/A   Clear
10:15 PM 75.6 °F - 72.7 °F 91% 29.74 in 10.0 mi Calm Calm - N/A   Clear
10:35 PM 75.6 °F - 71.6 °F 87% 29.74 in 10.0 mi North 3.5 mph - N/A   Clear
10:55 PM 71.8 °F - 70.5 °F 96% 29.75 in 7.0 mi Calm Calm - N/A   Clear
11:15 PM 72.5 °F - 71.4 °F 96% 29.74 in 7.0 mi West 3.5 mph - N/A   Clear
11:35 PM 71.2 °F - 71.1 °F 99% 29.74 in 7.0 mi West 4.6 mph - N/A   Clear
11:55 PM 70.7 °F - 70.7 °F 100% 29.74 in 7.0 mi WNW 3.5 mph - N/A   Clear